Time,TemperatureF,DewpointF,PressureIn,WindDirection,WindDirectionDegrees,WindSpeedMPH,WindSpeedGustMPH,Humidity,HourlyPrecipIn,Conditions,Clouds,dailyrainin,SoftwareType,DateUTC
2013-08-06 00:00:00,73.4,72.2,29.81,SSW,198,0.0,0.0,96,0.00,,,0.00,Wunderground v.1.15,2013-08-06 05:00:00,
2013-08-06 00:10:00,73.1,71.9,29.80,SSW,198,0.0,0.0,96,0.00,,,0.00,Wunderground v.1.15,2013-08-06 05:10:00,
2013-08-06 00:15:00,72.9,71.7,29.81,SSW,197,0.0,0.0,96,0.00,,,0.00,Wunderground v.1.15,2013-08-06 05:15:00,
2013-08-06 00:25:00,72.9,71.7,29.81,SSW,198,0.0,0.0,96,0.00,,,0.00,Wunderground v.1.15,2013-08-06 05:25:00,
2013-08-06 00:35:00,72.5,71.3,29.81,SSW,197,0.0,0.0,96,0.00,,,0.00,Wunderground v.1.15,2013-08-06 05:35:00,
2013-08-06 00:45:00,73.2,72.3,29.81,SSE,166,1.0,2.0,97,0.00,,,0.00,Wunderground v.1.15,2013-08-06 05:45:00,
2013-08-06 00:55:00,73.4,72.5,29.81,SSE,150,2.0,2.0,97,0.00,,,0.00,Wunderground v.1.15,2013-08-06 05:55:00,
2013-08-06 01:00:00,73.3,72.4,29.81,SSE,147,1.0,1.0,97,0.00,,,0.00,Wunderground v.1.15,2013-08-06 06:00:00,
2013-08-06 01:10:00,72.5,71.3,29.81,SSE,152,0.0,0.0,96,0.00,,,0.00,Wunderground v.1.15,2013-08-06 06:10:00,
2013-08-06 01:20:00,71.9,70.7,29.80,SSE,152,0.0,0.0,96,0.00,,,0.00,Wunderground v.1.15,2013-08-06 06:20:00,
2013-08-06 01:30:00,72.7,71.8,29.80,SE,144,0.0,1.0,97,0.00,,,0.00,Wunderground v.1.15,2013-08-06 06:30:00,
2013-08-06 01:35:00,72.6,71.7,29.79,SE,143,1.0,1.0,97,0.00,,,0.00,Wunderground v.1.15,2013-08-06 06:35:00,
2013-08-06 01:45:00,72.4,71.5,29.79,SE,143,0.0,0.0,97,0.00,,,0.00,Wunderground v.1.15,2013-08-06 06:45:00,
2013-08-06 01:55:00,72.6,71.7,29.78,SE,131,0.0,1.0,97,0.00,,,0.00,Wunderground v.1.15,2013-08-06 06:55:00,
2013-08-06 02:00:00,72.6,71.7,29.78,SE,131,0.0,1.0,97,0.00,,,0.00,Wunderground v.1.15,2013-08-06 07:00:00,
2013-08-06 02:10:00,72.4,71.5,29.78,SE,131,0.0,1.0,97,0.00,,,0.00,Wunderground v.1.15,2013-08-06 07:10:00,
2013-08-06 02:20:00,72.2,71.3,29.79,SE,131,0.0,0.0,97,0.00,,,0.00,Wunderground v.1.15,2013-08-06 07:20:00,
2013-08-06 02:25:00,71.9,70.7,29.79,SE,131,0.0,0.0,96,0.00,,,0.00,Wunderground v.1.15,2013-08-06 07:25:00,
2013-08-06 02:35:00,71.3,70.1,29.78,SE,131,0.0,0.0,96,0.00,,,0.00,Wunderground v.1.15,2013-08-06 07:35:00,
2013-08-06 02:45:00,71.1,69.9,29.78,SE,134,0.0,0.0,96,0.00,,,0.00,Wunderground v.1.15,2013-08-06 07:45:00,
2013-08-06 02:55:00,70.7,69.5,29.78,SE,134,0.0,0.0,96,0.00,,,0.00,Wunderground v.1.15,2013-08-06 07:55:00,
2013-08-06 03:00:00,70.8,69.9,29.77,SE,134,0.0,0.0,97,0.00,,,0.00,Wunderground v.1.15,2013-08-06 08:00:00,
2013-08-06 03:10:00,70.5,69.3,29.78,SE,134,0.0,0.0,96,0.00,,,0.00,Wunderground v.1.15,2013-08-06 08:10:00,
2013-08-06 03:20:00,70.3,69.1,29.78,South,173,1.0,1.0,96,0.00,,,0.00,Wunderground v.1.15,2013-08-06 08:20:00,
2013-08-06 03:30:00,69.9,69.0,29.77,SSE,153,1.0,1.0,97,0.00,,,0.00,Wunderground v.1.15,2013-08-06 08:30:00,
2013-08-06 03:40:00,69.5,68.3,29.77,SSE,153,0.0,0.0,96,0.00,,,0.00,Wunderground v.1.15,2013-08-06 08:40:00,
2013-08-06 03:50:00,69.2,68.3,29.77,SSE,153,0.0,0.0,97,0.00,,,0.00,Wunderground v.1.15,2013-08-06 08:50:00,
2013-08-06 03:55:00,69.2,68.3,29.77,SSE,163,0.0,0.0,97,0.00,,,0.00,Wunderground v.1.15,2013-08-06 08:55:00,
2013-08-06 04:00:00,69.2,68.3,29.76,SSE,163,0.0,0.0,97,0.00,,,0.00,Wunderground v.1.15,2013-08-06 09:00:00,
2013-08-06 04:10:00,69.3,68.4,29.76,SSE,163,0.0,0.0,97,0.00,,,0.00,Wunderground v.1.15,2013-08-06 09:10:00,
2013-08-06 04:20:00,69.8,68.9,29.75,SSE,164,0.0,0.0,97,0.00,,,0.00,Wunderground v.1.15,2013-08-06 09:20:00,
2013-08-06 04:30:00,69.7,68.8,29.75,SSE,163,0.0,0.0,97,0.00,,,0.00,Wunderground v.1.15,2013-08-06 09:30:00,
2013-08-06 04:40:00,70.0,69.1,29.74,SSE,163,0.0,0.0,97,0.00,,,0.00,Wunderground v.1.15,2013-08-06 09:40:00,
2013-08-06 04:50:00,69.6,68.7,29.74,SSE,164,0.0,0.0,97,0.00,,,0.00,Wunderground v.1.15,2013-08-06 09:50:00,
2013-08-06 05:00:00,69.7,68.8,29.75,SSE,148,0.0,1.0,97,0.00,,,0.00,Wunderground v.1.15,2013-08-06 10:00:00,
2013-08-06 05:10:00,69.8,68.9,29.74,SE,131,1.0,1.0,97,0.00,,,0.00,Wunderground v.1.15,2013-08-06 10:10:00,
2013-08-06 05:15:00,69.8,68.9,29.74,SE,131,1.0,1.0,97,0.00,,,0.00,Wunderground v.1.15,2013-08-06 10:15:00,
2013-08-06 05:20:00,69.7,68.8,29.75,SE,131,0.0,0.0,97,0.00,,,0.00,Wunderground v.1.15,2013-08-06 10:20:00,
2013-08-06 05:30:00,69.5,68.6,29.75,ESE,120,1.0,3.0,97,0.00,,,0.00,Wunderground v.1.15,2013-08-06 10:30:00,
2013-08-06 05:35:00,69.7,68.8,29.75,ESE,117,2.0,3.0,97,0.00,,,0.00,Wunderground v.1.15,2013-08-06 10:35:00,
2013-08-06 05:45:00,70.0,69.1,29.75,ESE,117,1.0,2.0,97,0.00,,,0.00,Wunderground v.1.15,2013-08-06 10:45:00,
2013-08-06 05:55:00,69.5,68.6,29.76,ESE,104,1.0,2.0,97,0.00,,,0.00,Wunderground v.1.15,2013-08-06 10:55:00,
2013-08-06 06:00:00,69.5,68.6,29.76,NNE,15,2.0,2.0,97,0.00,,,0.00,Wunderground v.1.15,2013-08-06 11:00:00,
2013-08-06 06:10:00,69.7,68.8,29.76,NE,45,1.0,2.0,97,0.00,,,0.00,Wunderground v.1.15,2013-08-06 11:10:00,
2013-08-06 06:15:00,69.6,68.7,29.76,NE,40,2.0,3.0,97,0.00,,,0.00,Wunderground v.1.15,2013-08-06 11:15:00,
2013-08-06 06:25:00,69.5,68.6,29.76,ENE,71,4.0,4.0,97,0.00,,,0.00,Wunderground v.1.15,2013-08-06 11:25:00,
2013-08-06 06:35:00,69.4,68.5,29.77,ENE,68,1.0,2.0,97,0.00,,,0.00,Wunderground v.1.15,2013-08-06 11:35:00,
2013-08-06 06:45:00,69.7,68.8,29.78,ENE,78,1.0,1.0,97,0.00,,,0.00,Wunderground v.1.15,2013-08-06 11:45:00,
2013-08-06 06:55:00,70.0,69.1,29.78,East,90,0.0,0.0,97,0.00,,,0.00,Wunderground v.1.15,2013-08-06 11:55:00,
2013-08-06 07:00:00,70.3,69.4,29.79,NE,41,1.0,2.0,97,0.00,,,0.00,Wunderground v.1.15,2013-08-06 12:00:00,
2013-08-06 07:05:00,70.5,69.6,29.78,NE,41,1.0,2.0,97,0.00,,,0.00,Wunderground v.1.15,2013-08-06 12:05:00,
2013-08-06 07:15:00,70.2,69.3,29.79,North,356,1.0,1.0,97,0.00,,,0.00,Wunderground v.1.15,2013-08-06 12:15:00,
2013-08-06 07:25:00,70.0,69.1,29.80,West,278,1.0,2.0,97,0.00,,,0.00,Wunderground v.1.15,2013-08-06 12:25:00,
2013-08-06 07:35:00,70.0,69.1,29.80,NNW,335,1.0,6.0,97,0.00,,,0.00,Wunderground v.1.15,2013-08-06 12:35:00,
2013-08-06 07:45:00,69.4,68.5,29.82,NNE,16,5.0,5.0,97,0.00,,,0.00,Wunderground v.1.15,2013-08-06 12:45:00,
2013-08-06 07:55:00,69.0,68.1,29.82,NE,46,4.0,5.0,97,0.00,,,0.00,Wunderground v.1.15,2013-08-06 12:55:00,
2013-08-06 08:00:00,69.2,68.3,29.82,ENE,61,2.0,2.0,97,0.00,,,0.00,Wunderground v.1.15,2013-08-06 13:00:00,
2013-08-06 08:10:00,69.3,68.4,29.82,SE,127,2.0,2.0,97,0.00,,,0.00,Wunderground v.1.15,2013-08-06 13:10:00,
2013-08-06 08:20:00,69.6,68.4,29.84,NNW,327,0.0,2.0,96,0.00,,,0.00,Wunderground v.1.15,2013-08-06 13:20:00,
2013-08-06 08:30:00,69.7,68.5,29.86,WNW,295,1.0,3.0,96,0.00,,,0.00,Wunderground v.1.15,2013-08-06 13:30:00,
2013-08-06 08:40:00,69.6,68.1,29.89,North,352,6.0,6.0,95,0.00,,,0.00,Wunderground v.1.15,2013-08-06 13:40:00,
2013-08-06 08:50:00,67.5,66.0,29.85,North,1,12.0,18.0,95,0.54,,,0.12,Wunderground v.1.15,2013-08-06 13:50:00,
2013-08-06 08:55:00,66.4,65.2,29.84,NNE,30,17.0,19.0,96,0.26,,,0.15,Wunderground v.1.15,2013-08-06 13:55:00,
2013-08-06 09:00:00,66.0,64.8,29.84,North,8,20.0,20.0,96,0.34,,,0.18,Wunderground v.1.15,2013-08-06 14:00:00,
2013-08-06 09:10:00,66.6,65.7,29.84,NNE,30,13.0,14.0,97,0.05,,,0.18,Wunderground v.1.15,2013-08-06 14:10:00,
2013-08-06 09:20:00,67.3,66.4,29.83,NNE,18,11.0,11.0,97,0.00,,,0.18,Wunderground v.1.15,2013-08-06 14:20:00,
2013-08-06 09:30:00,67.5,66.6,29.81,ENE,66,9.0,9.0,97,0.00,,,0.18,Wunderground v.1.15,2013-08-06 14:30:00,
2013-08-06 09:40:00,68.0,67.1,29.81,SE,131,4.0,4.0,97,0.00,,,0.18,Wunderground v.1.15,2013-08-06 14:40:00,
2013-08-06 09:50:00,68.1,67.2,29.80,ENE,66,6.0,8.0,97,0.00,,,0.18,Wunderground v.1.15,2013-08-06 14:50:00,
2013-08-06 10:00:00,68.1,67.2,29.79,SE,131,9.0,10.0,97,0.00,,,0.18,Wunderground v.1.15,2013-08-06 15:00:00,
2013-08-06 10:10:00,68.8,67.9,29.79,SSE,147,6.0,6.0,97,0.00,,,0.18,Wunderground v.1.15,2013-08-06 15:10:00,
2013-08-06 10:20:00,69.4,68.2,29.80,SE,139,6.0,6.0,96,0.00,,,0.18,Wunderground v.1.15,2013-08-06 15:20:00,
2013-08-06 10:30:00,70.5,69.3,29.79,East,94,6.0,7.0,96,0.00,,,0.18,Wunderground v.1.15,2013-08-06 15:30:00,
2013-08-06 10:40:00,71.3,68.5,29.78,ESE,113,7.0,8.0,91,0.00,,,0.18,Wunderground v.1.15,2013-08-06 15:40:00,
2013-08-06 10:50:00,71.9,68.2,29.79,SSE,153,5.0,7.0,88,0.00,,,0.18,Wunderground v.1.15,2013-08-06 15:50:00,
2013-08-06 11:00:00,72.2,68.1,29.79,SE,141,4.0,4.0,87,0.00,,,0.18,Wunderground v.1.15,2013-08-06 16:00:00,
2013-08-06 11:10:00,72.6,68.2,29.79,South,191,4.0,5.0,86,0.00,,,0.18,Wunderground v.1.15,2013-08-06 16:10:00,
2013-08-06 11:20:00,73.1,68.3,29.78,SE,133,5.0,6.0,85,0.00,,,0.18,Wunderground v.1.15,2013-08-06 16:20:00,
2013-08-06 11:30:00,73.8,69.0,29.78,SSE,165,6.0,6.0,85,0.00,,,0.18,Wunderground v.1.15,2013-08-06 16:30:00,
2013-08-06 11:40:00,74.6,70.1,29.78,SSE,160,8.0,8.0,86,0.00,,,0.18,Wunderground v.1.15,2013-08-06 16:40:00,
2013-08-06 11:50:00,76.6,71.0,29.78,SE,142,9.0,9.0,83,0.00,,,0.18,Wunderground v.1.15,2013-08-06 16:50:00,
2013-08-06 12:00:00,78.2,71.5,29.77,South,188,8.0,8.0,80,0.00,,,0.18,Wunderground v.1.15,2013-08-06 17:00:00,
2013-08-06 12:10:00,78.9,71.5,29.77,SE,131,7.0,11.0,78,0.00,,,0.18,Wunderground v.1.15,2013-08-06 17:10:00,
2013-08-06 12:15:00,79.0,71.6,29.76,SSE,155,9.0,11.0,78,0.00,,,0.18,Wunderground v.1.15,2013-08-06 17:15:00,
2013-08-06 12:25:00,79.7,71.8,29.76,SSE,163,11.0,11.0,77,0.00,,,0.18,Wunderground v.1.15,2013-08-06 17:25:00,
2013-08-06 12:30:00,80.1,72.6,29.75,South,189,10.0,11.0,78,0.00,,,0.18,Wunderground v.1.15,2013-08-06 17:30:00,
2013-08-06 12:35:00,80.7,72.4,29.75,South,180,11.0,11.0,76,0.00,,,0.18,Wunderground v.1.15,2013-08-06 17:35:00,
2013-08-06 12:40:00,80.5,72.6,29.75,South,181,11.0,11.0,77,0.00,,,0.18,Wunderground v.1.15,2013-08-06 17:40:00,
2013-08-06 12:50:00,80.7,72.4,29.74,South,174,12.0,12.0,76,0.00,,,0.18,Wunderground v.1.15,2013-08-06 17:50:00,
2013-08-06 13:01:00,81.6,73.3,29.74,South,191,11.0,11.0,76,0.00,,,0.18,Wunderground v.1.15,2013-08-06 18:01:00,
2013-08-06 13:10:00,82.6,74.3,29.74,South,183,11.0,13.0,76,0.00,,,0.18,Wunderground v.1.15,2013-08-06 18:10:00,
2013-08-06 13:15:00,83.0,74.3,29.74,South,190,12.0,13.0,75,0.00,,,0.18,Wunderground v.1.15,2013-08-06 18:15:00,
2013-08-06 13:25:00,83.2,74.4,29.74,SSE,166,10.0,14.0,75,0.00,,,0.18,Wunderground v.1.15,2013-08-06 18:25:00,
2013-08-06 13:35:00,83.4,74.6,29.74,SW,219,12.0,16.0,75,0.00,,,0.18,Wunderground v.1.15,2013-08-06 18:35:00,
2013-08-06 13:45:00,83.5,75.5,29.74,SW,224,13.0,17.0,77,0.00,,,0.18,Wunderground v.1.15,2013-08-06 18:45:00,
2013-08-06 13:55:00,83.9,75.5,29.73,South,191,12.0,14.0,76,0.00,,,0.18,Wunderground v.1.15,2013-08-06 18:55:00,
2013-08-06 14:00:00,84.2,75.4,29.73,SW,217,12.0,12.0,75,0.00,,,0.18,Wunderground v.1.15,2013-08-06 19:00:00,
2013-08-06 14:10:00,84.2,75.4,29.73,SW,226,12.0,12.0,75,0.00,,,0.18,Wunderground v.1.15,2013-08-06 19:10:00,
2013-08-06 14:20:00,84.5,75.3,29.74,SW,220,11.0,13.0,74,0.00,,,0.18,Wunderground v.1.15,2013-08-06 19:20:00,
2013-08-06 14:30:00,84.7,75.5,29.74,SSW,212,10.0,12.0,74,0.00,,,0.18,Wunderground v.1.15,2013-08-06 19:30:00,
2013-08-06 14:40:00,85.2,76.0,29.74,SSW,210,9.0,9.0,74,0.00,,,0.18,Wunderground v.1.15,2013-08-06 19:40:00,
2013-08-06 14:45:00,85.4,75.8,29.74,South,176,8.0,11.0,73,0.00,,,0.18,Wunderground v.1.15,2013-08-06 19:45:00,
2013-08-06 14:55:00,85.7,76.0,29.74,South,183,9.0,9.0,73,0.00,,,0.18,Wunderground v.1.15,2013-08-06 19:55:00,
2013-08-06 15:00:00,85.5,75.9,29.74,SSW,197,10.0,10.0,73,0.00,,,0.18,Wunderground v.1.15,2013-08-06 20:00:00,
2013-08-06 15:10:00,85.9,75.4,29.74,South,190,10.0,10.0,71,0.00,,,0.18,Wunderground v.1.15,2013-08-06 20:10:00,
2013-08-06 15:20:00,86.4,77.5,29.74,SW,228,7.0,7.0,75,0.00,,,0.18,Wunderground v.1.15,2013-08-06 20:20:00,
2013-08-06 15:30:00,87.0,76.0,29.74,SW,228,7.0,11.0,70,0.00,,,0.18,Wunderground v.1.15,2013-08-06 20:30:00,
2013-08-06 15:35:00,86.6,76.9,29.74,SW,215,8.0,11.0,73,0.00,,,0.18,Wunderground v.1.15,2013-08-06 20:35:00,
2013-08-06 15:40:00,86.5,76.0,29.74,SSW,197,8.0,8.0,71,0.00,,,0.18,Wunderground v.1.15,2013-08-06 20:40:00,
2013-08-06 15:50:00,86.4,76.3,29.74,WSW,249,8.0,10.0,72,0.00,,,0.18,Wunderground v.1.15,2013-08-06 20:50:00,
2013-08-06 16:00:00,86.4,77.1,29.74,SSW,210,7.0,9.0,74,0.00,,,0.18,Wunderground v.1.15,2013-08-06 21:00:00,
2013-08-06 16:10:00,87.1,77.8,29.74,WSW,243,7.0,8.0,74,0.00,,,0.18,Wunderground v.1.15,2013-08-06 21:10:00,
2013-08-06 16:15:00,86.8,76.7,29.74,West,259,6.0,8.0,72,0.00,,,0.18,Wunderground v.1.15,2013-08-06 21:15:00,
2013-08-06 16:20:00,86.7,76.6,29.74,SW,231,5.0,6.0,72,0.00,,,0.18,Wunderground v.1.15,2013-08-06 21:20:00,
2013-08-06 16:30:00,87.0,77.7,29.74,West,266,6.0,6.0,74,0.00,,,0.18,Wunderground v.1.15,2013-08-06 21:30:00,
2013-08-06 16:40:00,87.0,76.0,29.74,West,259,6.0,6.0,70,0.00,,,0.18,Wunderground v.1.15,2013-08-06 21:40:00,
2013-08-06 16:50:00,86.7,75.7,29.74,SW,233,5.0,5.0,70,0.00,,,0.18,Wunderground v.1.15,2013-08-06 21:50:00,
2013-08-06 17:00:00,86.7,77.4,29.73,West,262,4.0,4.0,74,0.00,,,0.18,Wunderground v.1.15,2013-08-06 22:00:00,
2013-08-06 17:10:00,87.0,76.5,29.73,West,276,3.0,3.0,71,0.00,,,0.18,Wunderground v.1.15,2013-08-06 22:10:00,
2013-08-06 17:15:00,87.6,77.0,29.73,WSW,253,3.0,4.0,71,0.00,,,0.18,Wunderground v.1.15,2013-08-06 22:15:00,
2013-08-06 17:25:00,87.5,76.9,29.73,West,271,4.0,4.0,71,0.00,,,0.18,Wunderground v.1.15,2013-08-06 22:25:00,
2013-08-06 17:35:00,87.2,77.1,29.73,SW,233,3.0,4.0,72,0.00,,,0.18,Wunderground v.1.15,2013-08-06 22:35:00,
2013-08-06 17:40:00,87.0,76.0,29.74,SW,231,2.0,2.0,70,0.00,,,0.18,Wunderground v.1.15,2013-08-06 22:40:00,
2013-08-06 17:50:00,88.6,77.6,29.74,SW,232,2.0,2.0,70,0.00,,,0.18,Wunderground v.1.15,2013-08-06 22:50:00,
2013-08-06 18:00:00,89.4,76.1,29.74,WNW,286,2.0,3.0,65,0.00,,,0.18,Wunderground v.1.15,2013-08-06 23:00:00,
2013-08-06 18:10:00,88.5,77.5,29.74,West,267,3.0,3.0,70,0.00,,,0.18,Wunderground v.1.15,2013-08-06 23:10:00,
2013-08-06 18:15:00,88.5,76.6,29.73,West,277,2.0,3.0,68,0.00,,,0.18,Wunderground v.1.15,2013-08-06 23:15:00,
2013-08-06 18:25:00,87.6,77.0,29.73,West,276,3.0,3.0,71,0.00,,,0.18,Wunderground v.1.15,2013-08-06 23:25:00,
2013-08-06 18:35:00,87.6,77.0,29.73,West,270,1.0,3.0,71,0.00,,,0.18,Wunderground v.1.15,2013-08-06 23:35:00,
2013-08-06 18:45:00,87.3,77.2,29.73,WNW,293,2.0,3.0,72,0.00,,,0.18,Wunderground v.1.15,2013-08-06 23:45:00,
2013-08-06 18:55:00,87.4,76.8,29.73,West,262,2.0,3.0,71,0.00,,,0.18,Wunderground v.1.15,2013-08-06 23:55:00,
2013-08-06 19:00:00,87.3,76.3,29.73,West,268,2.0,2.0,70,0.00,,,0.18,Wunderground v.1.15,2013-08-07 00:00:00,
2013-08-06 19:10:00,87.6,76.6,29.72,WNW,288,1.0,1.0,70,0.00,,,0.18,Wunderground v.1.15,2013-08-07 00:10:00,
2013-08-06 19:15:00,87.7,77.1,29.72,West,277,1.0,1.0,71,0.00,,,0.18,Wunderground v.1.15,2013-08-07 00:15:00,
2013-08-06 19:25:00,88.0,77.8,29.72,West,281,1.0,1.0,72,0.00,,,0.18,Wunderground v.1.15,2013-08-07 00:25:00,
2013-08-06 19:35:00,87.6,77.0,29.72,NNW,330,1.0,1.0,71,0.00,,,0.18,Wunderground v.1.15,2013-08-07 00:35:00,
2013-08-06 19:45:00,86.0,77.5,29.73,NNW,329,1.0,2.0,76,0.00,,,0.18,Wunderground v.1.15,2013-08-07 00:45:00,
2013-08-06 19:55:00,86.2,77.3,29.73,NNW,329,0.0,1.0,75,0.00,,,0.18,Wunderground v.1.15,2013-08-07 00:55:00,
2013-08-06 20:00:00,86.0,77.5,29.74,NNW,329,0.0,1.0,76,0.00,,,0.18,Wunderground v.1.15,2013-08-07 01:00:00,
2013-08-06 20:10:00,84.2,77.0,29.74,NNW,332,2.0,2.0,79,0.00,,,0.18,Wunderground v.1.15,2013-08-07 01:10:00,
2013-08-06 20:20:00,82.9,76.5,29.74,NNW,339,1.0,1.0,81,0.00,,,0.18,Wunderground v.1.15,2013-08-07 01:20:00,
2013-08-06 20:30:00,82.1,76.4,29.74,NNW,338,0.0,0.0,83,0.00,,,0.18,Wunderground v.1.15,2013-08-07 01:30:00,
2013-08-06 20:35:00,81.6,76.3,29.73,NNW,338,0.0,0.0,84,0.00,,,0.18,Wunderground v.1.15,2013-08-07 01:35:00,
2013-08-06 20:45:00,80.7,76.1,29.73,NNW,338,0.0,0.0,86,0.00,,,0.18,Wunderground v.1.15,2013-08-07 01:45:00,
2013-08-06 20:55:00,79.7,75.8,29.73,NNW,338,0.0,0.0,88,0.00,,,0.18,Wunderground v.1.15,2013-08-07 01:55:00,
2013-08-06 21:00:00,79.2,75.7,29.73,NNW,339,0.0,0.0,89,0.00,,,0.18,Wunderground v.1.15,2013-08-07 02:00:00,
2013-08-06 21:10:00,79.0,75.8,29.73,NE,41,0.0,0.0,90,0.00,,,0.18,Wunderground v.1.15,2013-08-07 02:10:00,
2013-08-06 21:20:00,78.3,75.1,29.72,NE,41,0.0,0.0,90,0.00,,,0.18,Wunderground v.1.15,2013-08-07 02:20:00,
2013-08-06 21:30:00,77.5,74.7,29.74,NE,41,0.0,0.0,91,0.00,,,0.18,Wunderground v.1.15,2013-08-07 02:30:00,
2013-08-06 21:40:00,76.8,74.6,29.73,West,276,2.0,2.0,93,0.00,,,0.18,Wunderground v.1.15,2013-08-07 02:40:00,
2013-08-06 21:50:00,77.0,74.8,29.75,West,273,1.0,1.0,93,0.00,,,0.18,Wunderground v.1.15,2013-08-07 02:50:00,
2013-08-06 22:00:00,76.9,74.4,29.75,West,273,0.0,0.0,92,0.00,,,0.18,Wunderground v.1.15,2013-08-07 03:00:00,
2013-08-06 22:10:00,76.6,74.4,29.75,West,276,0.0,0.0,93,0.00,,,0.18,Wunderground v.1.15,2013-08-07 03:10:00,
2013-08-06 22:15:00,76.6,74.4,29.75,SW,221,0.0,1.0,93,0.00,,,0.18,Wunderground v.1.15,2013-08-07 03:15:00,
2013-08-06 22:25:00,76.6,74.7,29.76,NE,53,0.0,2.0,94,0.00,,,0.18,Wunderground v.1.15,2013-08-07 03:25:00,
2013-08-06 22:35:00,76.2,74.0,29.77,NNW,340,1.0,2.0,93,0.00,,,0.18,Wunderground v.1.15,2013-08-07 03:35:00,
2013-08-06 22:45:00,76.4,74.9,29.77,NNE,27,3.0,5.0,95,0.00,,,0.18,Wunderground v.1.15,2013-08-07 03:45:00,
2013-08-06 22:50:00,76.5,74.6,29.77,North,352,3.0,3.0,94,0.00,,,0.18,Wunderground v.1.15,2013-08-07 03:50:00,
2013-08-06 23:00:00,76.5,74.6,29.77,NW,318,3.0,3.0,94,0.00,,,0.18,Wunderground v.1.15,2013-08-07 04:00:00,
2013-08-06 23:05:00,76.6,74.7,29.77,North,352,2.0,3.0,94,0.00,,,0.18,Wunderground v.1.15,2013-08-07 04:05:00,
2013-08-06 23:10:00,76.6,74.7,29.77,North,349,3.0,3.0,94,0.00,,,0.18,Wunderground v.1.15,2013-08-07 04:10:00,
2013-08-06 23:15:00,76.7,74.5,29.77,North,359,2.0,3.0,93,0.00,,,0.18,Wunderground v.1.15,2013-08-07 04:15:00,
2013-08-06 23:25:00,76.7,74.2,29.76,NNW,343,2.0,2.0,92,0.00,,,0.18,Wunderground v.1.15,2013-08-07 04:25:00,
2013-08-06 23:35:00,76.3,74.1,29.76,North,352,2.0,3.0,93,0.00,,,0.18,Wunderground v.1.15,2013-08-07 04:35:00,
2013-08-06 23:40:00,76.2,74.0,29.76,NNE,20,2.0,2.0,93,0.00,,,0.18,Wunderground v.1.15,2013-08-07 04:40:00,
2013-08-06 23:45:00,76.2,73.7,29.76,NNE,30,2.0,2.0,92,0.00,,,0.18,Wunderground v.1.15,2013-08-07 04:45:00,
2013-08-06 23:55:00,76.1,73.6,29.77,North,5,2.0,3.0,92,0.00,,,0.18,Wunderground v.1.15,2013-08-07 04:55:00,